Time;durP1;ratioP1;P1;durP2;ratioP2;P2;SDS_P1;SDS_P2;PMS_P1;PMS_P2;Temp;Humidity;BMP_temperature;BMP_pressure;BME280_temperature;BME280_humidity;BME280_pressure;Samples;Min_cycle;Max_cycle;Signal;HPM_P1;HPM_P2
2023/12/07 00:00:05;;;;;;;;;;;;;;;;;;5094783;28;19912;-84
2023/12/07 00:02:30;;;;;;;;;;;;;;;;;;5095095;28;20359;-83
2023/12/07 00:04:56;;;;;;;;;;;;;;;;;;5093795;28;19916;-83
2023/12/07 00:07:21;;;;;;;;;;;;;;;;;;5094964;28;19912;-84
2023/12/07 00:09:46;;;;;;;;;;;;;;;;;;5093743;28;20378;-83
2023/12/07 00:12:11;;;;;;;;;;;;;;;;;;5095107;28;19912;-83
2023/12/07 00:14:36;;;;;;;;;;;;;;;;;;5094339;28;19921;-83
2023/12/07 00:17:01;;;;;;;;;;;;;;;;;;5093989;28;20736;-84
2023/12/07 00:19:26;;;;;;;;;;;;;;;;;;5094703;28;19908;-83
2023/12/07 00:21:51;;;;;;;;;;;;;;;;;;5094324;28;19911;-83
2023/12/07 00:24:16;;;;;;;;;;;;;;;;;;5089097;28;19912;-83
2023/12/07 00:26:41;;;;;;;;;;;;;;;;;;5094420;28;19908;-84
2023/12/07 00:29:07;;;;;;;;;;;;;;;;;;5094321;28;19919;-83
2023/12/07 00:31:32;;;;;;;;;;;;;;;;;;5094029;28;19995;-83
2023/12/07 00:33:57;;;;;;;;;;;;;;;;;;5093907;28;19922;-83
2023/12/07 00:36:22;;;;;;;;;;;;;;;;;;5094774;28;19916;-83
2023/12/07 00:38:47;;;;;;;;;;;;;;;;;;5092340;28;19908;-83
2023/12/07 00:41:12;;;;;;;;;;;;;;;;;;5094039;28;20378;-84
2023/12/07 00:43:37;;;;;;;;;;;;;;;;;;5088232;28;19933;-84
2023/12/07 00:46:02;;;;;;;;;;;;;;;;;;5093223;28;20360;-83
2023/12/07 00:48:27;;;;;;;;;;;;;;;;;;5094261;28;19916;-83
2023/12/07 00:50:52;;;;;;;;;;;;;;;;;;5093750;28;19990;-83
2023/12/07 00:53:18;;;;;;;;;;;;;;;;;;5093494;28;19918;-83
2023/12/07 00:55:43;;;;;;;;;;;;;;;;;;5093709;28;19924;-83
2023/12/07 00:58:08;;;;;;;;;;;;;;;;;;5093742;28;20397;-83
2023/12/07 01:00:33;;;;;;;;;;;;;;;;;;5093362;28;20359;-83
2023/12/07 01:02:58;;;;;;;;;;;;;;;;;;5093792;28;19916;-83
2023/12/07 01:05:23;;;;;;;;;;;;;;;;;;5094081;28;19919;-83
2023/12/07 01:07:48;;;;;;;;;;;;;;;;;;5092620;28;19916;-84
2023/12/07 01:10:13;;;;;;;;;;;;;;;;;;5093878;28;19908;-83
2023/12/07 01:12:39;;;;;;;;;;;;;;;;;;5093672;28;20292;-83
2023/12/07 01:15:04;;;;;;;;;;;;;;;;;;5092424;28;19920;-83
2023/12/07 01:17:29;;;;;;;;;;;;;;;;;;5093873;28;19912;-83
2023/12/07 01:19:54;;;;;;;;;;;;;;;;;;5093452;28;19965;-83
2023/12/07 01:22:20;;;;;;;;;;;;;;;;;;5093136;28;19948;-83
2023/12/07 01:24:45;;;;;;;;;;;;;;;;;;5092274;28;19962;-83
2023/12/07 01:27:10;;;;;;;;;;;;;;;;;;5092855;28;19916;-83
2023/12/07 01:29:35;;;;;;;;;;;;;;;;;;5093727;28;19965;-83
2023/12/07 01:32:00;;;;;;;;;;;;;;;;;;5092940;28;19912;-83
2023/12/07 01:34:26;;;;;;;;;;;;;;;;;;5092453;28;20435;-83
2023/12/07 01:36:51;;;;;;;;;;;;;;;;;;5093320;28;19962;-83
2023/12/07 01:39:16;;;;;;;;;;;;;;;;;;5093350;28;19924;-83
2023/12/07 01:41:41;;;;;;;;;;;;;;;;;;5092366;28;19912;-83
2023/12/07 01:44:06;;;;;;;;;;;;;;;;;;5092965;28;19912;-83
2023/12/07 01:46:31;;;;;;;;;;;;;;;;;;5093394;28;19913;-83
2023/12/07 01:48:56;;;;;;;;;;;;;;;;;;5091949;28;19919;-83
2023/12/07 01:51:22;;;;;;;;;;;;;;;;;;5092928;28;19912;-83
2023/12/07 01:53:48;;;;;;;;;;;;;;;;;;5092644;28;19912;-83
2023/12/07 01:56:13;;;;;;;;;;;;;;;;;;5092023;28;20014;-83
2023/12/07 01:58:38;;;;;;;;;;;;;;;;;;5093179;28;20359;-83
2023/12/07 02:01:04;;;;;;;;;;;;;;;;;;5092928;28;20014;-83
2023/12/07 02:03:30;;;;;;;;;;;;;;;;;;5092286;28;19998;-83
2023/12/07 02:05:55;;;;;;;;;;;;;;;;;;5092665;28;19970;-83
2023/12/07 02:08:20;;;;;;;;;;;;;;;;;;5092748;28;19952;-83
2023/12/07 02:10:46;;;;;;;;;;;;;;;;;;5091957;28;20332;-83
2023/12/07 02:13:11;;;;;;;;;;;;;;;;;;5092723;28;19912;-83
2023/12/07 02:15:36;;;;;;;;;;;;;;;;;;5092485;28;20280;-83
2023/12/07 02:18:01;;;;;;;;;;;;;;;;;;5092094;28;20256;-83
2023/12/07 02:20:26;;;;;;;;;;;;;;;;;;5092777;28;19919;-83
2023/12/07 02:22:51;;;;;;;;;;;;;;;;;;5089823;28;19947;-83
2023/12/07 02:25:16;;;;;;;;;;;;;;;;;;5092041;28;19951;-83
2023/12/07 02:27:41;;;;;;;;;;;;;;;;;;5088929;28;19920;-83
2023/12/07 02:30:06;;;;;;;;;;;;;;;;;;5092200;28;19912;-84
2023/12/07 02:32:32;;;;;;;;;;;;;;;;;;5091841;28;19954;-83
2023/12/07 02:34:57;;;;;;;;;;;;;;;;;;5092326;28;19920;-83
2023/12/07 02:37:22;;;;;;;;;;;;;;;;;;5092428;28;19913;-83
2023/12/07 02:39:47;;;;;;;;;;;;;;;;;;5091780;28;19916;-84
2023/12/07 02:42:12;;;;;;;;;;;;;;;;;;5092807;28;19920;-83
2023/12/07 02:44:37;;;;;;;;;;;;;;;;;;5091964;28;19912;-83
2023/12/07 02:47:02;;;;;;;;;;;;;;;;;;5092308;28;20085;-83
2023/12/07 02:49:27;;;;;;;;;;;;;;;;;;5092424;28;19920;-83
2023/12/07 02:51:53;;;;;;;;;;;;;;;;;;5091751;28;19962;-83
2023/12/07 02:54:18;;;;;;;;;;;;;;;;;;5092285;28;19916;-83
2023/12/07 02:56:43;;;;;;;;;;;;;;;;;;5092092;28;19916;-83
2023/12/07 02:59:08;;;;;;;;;;;;;;;;;;5091972;28;20382;-83
2023/12/07 03:01:33;;;;;;;;;;;;;;;;;;5094025;28;19916;-83
2023/12/07 03:03:58;;;;;;;;;;;;;;;;;;5090798;28;19965;-84
2023/12/07 03:06:23;;;;;;;;;;;;;;;;;;5095647;28;20332;-83
2023/12/07 03:08:48;;;;;;;;;;;;;;;;;;5095674;28;19912;-83
2023/12/07 03:11:13;;;;;;;;;;;;;;;;;;5096330;28;20378;-83
2023/12/07 03:13:39;;;;;;;;;;;;;;;;;;5091856;28;19912;-83
2023/12/07 03:16:04;;;;;;;;;;;;;;;;;;5095483;28;19927;-83
2023/12/07 03:18:29;;;;;;;;;;;;;;;;;;5092000;28;20283;-84
2023/12/07 03:20:54;;;;;;;;;;;;;;;;;;5091900;28;19927;-83
2023/12/07 03:23:19;;;;;;;;;;;;;;;;;;5093563;28;19920;-84
2023/12/07 03:25:44;;;;;;;;;;;;;;;;;;5094044;28;19912;-83
2023/12/07 03:28:09;;;;;;;;;;;;;;;;;;5092848;28;19926;-83
2023/12/07 03:30:34;;;;;;;;;;;;;;;;;;5093652;28;19912;-84
2023/12/07 03:32:59;;;;;;;;;;;;;;;;;;5092995;28;20267;-83
2023/12/07 03:35:24;;;;;;;;;;;;;;;;;;5091425;28;20015;-84
2023/12/07 03:37:50;;;;;;;;;;;;;;;;;;5086886;28;19916;-83
2023/12/07 03:40:15;;;;;;;;;;;;;;;;;;5095814;28;20351;-83
2023/12/07 03:42:40;;;;;;;;;;;;;;;;;;5082770;28;19955;-84
2023/12/07 03:45:05;;;;;;;;;;;;;;;;;;5095048;28;19927;-84
2023/12/07 03:47:30;;;;;;;;;;;;;;;;;;5095305;28;19912;-84
2023/12/07 03:49:55;;;;;;;;;;;;;;;;;;5094385;28;19940;-84
2023/12/07 03:52:20;;;;;;;;;;;;;;;;;;5091281;28;19957;-84
2023/12/07 03:54:46;;;;;;;;;;;;;;;;;;5082655;28;19981;-83
2023/12/07 03:57:11;;;;;;;;;;;;;;;;;;5093413;28;19912;-84
2023/12/07 03:59:36;;;;;;;;;;;;;;;;;;5095358;28;19919;-84
2023/12/07 04:02:01;;;;;;;;;;;;;;;;;;5094265;28;20370;-84
2023/12/07 04:04:26;;;;;;;;;;;;;;;;;;5095240;28;19920;-83
2023/12/07 04:06:51;;;;;;;;;;;;;;;;;;5094639;28;19912;-84
2023/12/07 04:09:16;;;;;;;;;;;;;;;;;;5094339;28;20313;-83
2023/12/07 04:11:42;;;;;;;;;;;;;;;;;;5094842;28;19939;-84
2023/12/07 04:14:07;;;;;;;;;;;;;;;;;;5094840;28;19927;-84
2023/12/07 04:16:32;;;;;;;;;;;;;;;;;;5094213;28;19912;-83
2023/12/07 04:18:58;;;;;;;;;;;;;;;;;;5089706;28;19919;-84
2023/12/07 04:21:23;;;;;;;;;;;;;;;;;;5094628;28;20359;-84
2023/12/07 04:23:48;;;;;;;;;;;;;;;;;;5086360;28;19923;-84
2023/12/07 04:26:14;;;;;;;;;;;;;;;;;;5087959;28;19919;-84
2023/12/07 04:28:39;;;;;;;;;;;;;;;;;;5089909;28;19919;-84
2023/12/07 04:31:04;;;;;;;;;;;;;;;;;;5093798;28;19912;-84
2023/12/07 04:33:29;;;;;;;;;;;;;;;;;;5094415;28;19920;-84
2023/12/07 04:35:54;;;;;;;;;;;;;;;;;;5094015;28;20288;-83
2023/12/07 04:38:20;;;;;;;;;;;;;;;;;;5093575;28;20382;-84
2023/12/07 04:40:45;;;;;;;;;;;;;;;;;;5094346;28;19966;-84
2023/12/07 04:43:10;;;;;;;;;;;;;;;;;;5094532;28;19978;-84
2023/12/07 04:45:35;;;;;;;;;;;;;;;;;;5090411;28;19912;-84
2023/12/07 04:48:00;;;;;;;;;;;;;;;;;;5094190;28;19912;-84
2023/12/07 04:50:25;;;;;;;;;;;;;;;;;;5094039;22;20410;-84
2023/12/07 04:52:50;;;;;;;;;;;;;;;;;;5072705;28;20348;-83
2023/12/07 04:55:15;;;;;;;;;;;;;;;;;;5068402;28;19929;-83
2023/12/07 04:57:41;;;;;;;;;;;;;;;;;;5073602;28;19935;-84
2023/12/07 05:00:06;;;;;;;;;;;;;;;;;;5072563;28;20402;-84
2023/12/07 05:02:31;;;;;;;;;;;;;;;;;;5073967;28;19939;-83
2023/12/07 05:04:56;;;;;;;;;;;;;;;;;;5073316;28;19919;-84
2023/12/07 05:07:21;;;;;;;;;;;;;;;;;;5072620;28;19912;-83
2023/12/07 05:09:46;;;;;;;;;;;;;;;;;;5073289;28;19913;-84
2023/12/07 05:12:11;;;;;;;;;;;;;;;;;;5072910;28;20364;-84
2023/12/07 05:14:36;;;;;;;;;;;;;;;;;;5073210;28;19943;-84
2023/12/07 05:17:02;;;;;;;;;;;;;;;;;;5073304;28;19916;-84
2023/12/07 05:19:27;;;;;;;;;;;;;;;;;;5072351;28;20023;-84
2023/12/07 05:21:52;;;;;;;;;;;;;;;;;;5069640;28;20340;-84
2023/12/07 05:24:18;;;;;;;;;;;;;;;;;;5072933;28;19912;-84
2023/12/07 05:26:43;;;;;;;;;;;;;;;;;;5071812;28;19912;-84
2023/12/07 05:29:08;;;;;;;;;;;;;;;;;;5073425;28;19913;-84
2023/12/07 05:31:33;;;;;;;;;;;;;;;;;;5073090;28;19912;-84
2023/12/07 05:33:58;;;;;;;;;;;;;;;;;;5072104;28;19974;-84
2023/12/07 05:36:23;;;;;;;;;;;;;;;;;;5073162;28;19970;-84
2023/12/07 05:38:48;;;;;;;;;;;;;;;;;;5067410;28;20364;-84
2023/12/07 05:41:13;;;;;;;;;;;;;;;;;;5072233;28;19951;-84
2023/12/07 05:43:39;;;;;;;;;;;;;;;;;;5067471;28;20265;-84
2023/12/07 05:46:04;;;;;;;;;;;;;;;;;;5072549;28;19912;-84
2023/12/07 05:48:29;;;;;;;;;;;;;;;;;;5072149;28;19920;-84
2023/12/07 05:50:55;;;;;;;;;;;;;;;;;;5072240;28;19959;-83
2023/12/07 05:53:20;;;;;;;;;;;;;;;;;;5072835;28;19912;-84
2023/12/07 05:55:46;;;;;;;;;;;;;;;;;;5071550;28;19931;-84
2023/12/07 05:58:11;;;;;;;;;;;;;;;;;;5072895;28;19919;-84
2023/12/07 06:00:37;;;;;;;;;;;;;;;;;;5072798;28;19912;-84
2023/12/07 06:03:02;;;;;;;;;;;;;;;;;;5071826;28;19922;-84
2023/12/07 06:05:28;;;;;;;;;;;;;;;;;;5066527;28;19955;-85
2023/12/07 06:07:54;;;;;;;;;;;;;;;;;;5072240;28;19966;-84
2023/12/07 06:10:19;;;;;;;;;;;;;;;;;;5071760;28;19921;-84
2023/12/07 06:12:44;;;;;;;;;;;;;;;;;;5072076;28;20008;-84
2023/12/07 06:15:10;;;;;;;;;;;;;;;;;;5072866;28;19927;-84
2023/12/07 06:17:35;;;;;;;;;;;;;;;;;;5067431;28;19917;-84
2023/12/07 06:20:00;;;;;;;;;;;;;;;;;;5072305;28;19912;-83
2023/12/07 06:22:25;;;;;;;;;;;;;;;;;;5072508;28;20012;-84
2023/12/07 06:24:50;;;;;;;;;;;;;;;;;;5071368;28;19916;-84
2023/12/07 06:27:15;;;;;;;;;;;;;;;;;;5065738;28;19943;-83
2023/12/07 06:29:40;;;;;;;;;;;;;;;;;;5069877;28;20299;-84
2023/12/07 06:32:06;;;;;;;;;;;;;;;;;;5072010;28;19924;-84
2023/12/07 06:34:31;;;;;;;;;;;;;;;;;;5072626;28;19924;-83
2023/12/07 06:36:56;;;;;;;;;;;;;;;;;;5073722;28;19931;-84
2023/12/07 06:39:21;;;;;;;;;;;;;;;;;;5076560;28;20474;-83
2023/12/07 06:41:46;;;;;;;;;;;;;;;;;;5076083;28;19913;-84
2023/12/07 06:44:12;;;;;;;;;;;;;;;;;;5075771;28;19912;-84
2023/12/07 06:46:37;;;;;;;;;;;;;;;;;;5073784;28;19912;-84
2023/12/07 06:49:02;;;;;;;;;;;;;;;;;;5075684;28;19916;-84
2023/12/07 06:51:27;;;;;;;;;;;;;;;;;;5075724;28;19912;-84
2023/12/07 06:53:52;;;;;;;;;;;;;;;;;;5075912;28;19913;-84
2023/12/07 06:56:17;;;;;;;;;;;;;;;;;;5076103;28;19935;-84
2023/12/07 06:58:42;;;;;;;;;;;;;;;;;;5075243;28;19912;-84
2023/12/07 07:01:07;;;;;;;;;;;;;;;;;;5072809;28;19926;-84
2023/12/07 07:03:32;;;;;;;;;;;;;;;;;;5075841;28;19917;-84
2023/12/07 07:05:59;;;;;;;;;;;;;;;;;;5074648;28;20286;-84
2023/12/07 07:08:24;;;;;;;;;;;;;;;;;;5075993;28;19966;-84
2023/12/07 07:10:52;;;;;;;;;;;;;;;;;;5075505;28;19916;-84
2023/12/07 07:13:20;;;;;;;;;;;;;;;;;;5075147;28;19919;-84
2023/12/07 07:15:45;;;;;;;;;;;;;;;;;;5075223;28;20065;-84
2023/12/07 07:18:10;;;;;;;;;;;;;;;;;;5075809;28;19944;-84
2023/12/07 07:20:35;;;;;;;;;;;;;;;;;;5075021;28;19912;-84
2023/12/07 07:23:00;;;;;;;;;;;;;;;;;;5074722;28;19958;-84
2023/12/07 07:25:37;;;;;;;;;;;;;;;;;;5075385;28;19916;-84
2023/12/07 07:28:03;;;;;;;;;;;;;;;;;;5100708;22;19924;-85
2023/12/07 07:30:28;;;;;;;;;;;;;;;;;;5107794;28;19916;-85
2023/12/07 07:32:53;;;;;;;;;;;;;;;;;;5098472;28;20040;-85
2023/12/07 07:35:18;;;;;;;;;;;;;;;;;;5109016;28;19920;-84
2023/12/07 07:37:43;;;;;;;;;;;;;;;;;;5096306;28;19947;-85
2023/12/07 07:40:11;;;;;;;;;;;;;;;;;;5106305;28;19953;-84
2023/12/07 07:42:36;;;;;;;;;;;;;;;;;;5100437;28;19919;-85
2023/12/07 07:45:01;;;;;;;;;;;;;;;;;;5106054;28;19916;-84
2023/12/07 07:47:26;;;;;;;;;;;;;;;;;;5100501;28;20036;-85
2023/12/07 07:49:51;;;;;;;;;;;;;;;;;;5104120;28;19919;-85
2023/12/07 07:52:16;;;;;;;;;;;;;;;;;;5107249;28;19916;-85
2023/12/07 07:54:41;;;;;;;;;;;;;;;;;;5102293;28;19927;-85
2023/12/07 07:57:07;;;;;;;;;;;;;;;;;;5103553;28;19916;-85
2023/12/07 07:59:32;;;;;;;;;;;;;;;;;;5106241;28;19919;-84
2023/12/07 08:01:57;;;;;;;;;;;;;;;;;;5101493;28;19916;-85
2023/12/07 08:04:22;;;;;;;;;;;;;;;;;;5097758;28;20378;-85
2023/12/07 08:06:47;;;;;;;;;;;;;;;;;;5103539;28;20029;-85
2023/12/07 08:09:14;;;;;;;;;;;;;;;;;;5102606;28;19912;-85
2023/12/07 08:11:40;;;;;;;;;;;;;;;;;;5103732;28;19920;-85
2023/12/07 08:14:05;;;;;;;;;;;;;;;;;;5102675;28;19912;-85
2023/12/07 08:16:30;;;;;;;;;;;;;;;;;;5103828;28;19912;-85
2023/12/07 08:18:55;;;;;;;;;;;;;;;;;;5106055;22;19928;-85
2023/12/07 08:21:20;;;;;;;;;;;;;;;;;;5074407;28;19946;-85
2023/12/07 08:23:45;;;;;;;;;;;;;;;;;;5070118;28;20698;-86
2023/12/07 08:26:11;;;;;;;;;;;;;;;;;;5069346;28;19960;-85
2023/12/07 08:28:36;;;;;;;;;;;;;;;;;;5074386;28;19912;-86
2023/12/07 08:31:01;;;;;;;;;;;;;;;;;;5073439;28;20044;-85
2023/12/07 08:33:26;;;;;;;;;;;;;;;;;;5074033;28;19964;-85
2023/12/07 08:35:55;;;;;;;;;;;;;;;;;;5073749;28;20372;-85
2023/12/07 08:38:20;;;;;;;;;;;;;;;;;;5073316;28;19999;-84
2023/12/07 08:40:46;;;;;;;;;;;;;;;;;;5074105;28;19940;-85
2023/12/07 08:43:11;;;;;;;;;;;;;;;;;;5073643;28;19960;-85
2023/12/07 08:45:38;;;;;;;;;;;;;;;;;;5069498;28;19913;-84
2023/12/07 08:48:03;;;;;;;;;;;;;;;;;;5072831;28;20011;-85
2023/12/07 08:50:29;;;;;;;;;;;;;;;;;;5070561;28;19959;-85
2023/12/07 08:52:54;;;;;;;;;;;;;;;;;;5073462;28;19913;-85
2023/12/07 08:55:20;;;;;;;;;;;;;;;;;;5073664;28;19966;-85
2023/12/07 08:57:45;;;;;;;;;;;;;;;;;;5072897;28;19919;-84
2023/12/07 09:00:12;;;;;;;;;;;;;;;;;;5072828;28;20279;-84
2023/12/07 09:02:37;;;;;;;;;;;;;;;;;;5073812;28;20296;-85
2023/12/07 09:05:03;;;;;;;;;;;;;;;;;;5072580;28;19916;-85
2023/12/07 09:07:28;;;;;;;;;;;;;;;;;;5073360;28;20375;-84
2023/12/07 09:09:53;;;;;;;;;;;;;;;;;;5073560;28;20375;-84
2023/12/07 09:12:18;;;;;;;;;;;;;;;;;;5064887;22;19925;-84
2023/12/07 09:14:43;;;;;;;;;;;;;;;;;;5046803;28;19916;-85
2023/12/07 09:17:08;;;;;;;;;;;;;;;;;;5042790;28;19975;-84
2023/12/07 09:19:33;;;;;;;;;;;;;;;;;;5084607;22;19946;-84
2023/12/07 09:21:59;;;;;;;;;;;;;;;;;;5087204;28;19919;-84
2023/12/07 09:24:24;;;;;;;;;;;;;;;;;;5080416;28;19966;-84
2023/12/07 09:26:49;;;;;;;;;;;;;;;;;;5092550;28;19915;-84
2023/12/07 09:29:14;;;;;;;;;;;;;;;;;;5088306;28;19912;-85
2023/12/07 09:31:39;;;;;;;;;;;;;;;;;;5082895;28;19913;-84
2023/12/07 09:34:04;;;;;;;;;;;;;;;;;;5087059;28;19912;-84
2023/12/07 09:36:29;;;;;;;;;;;;;;;;;;5091298;28;19919;-84
2023/12/07 09:38:54;;;;;;;;;;;;;;;;;;5087459;28;19912;-84
2023/12/07 09:41:20;;;;;;;;;;;;;;;;;;5089954;28;19912;-84
2023/12/07 09:43:45;;;;;;;;;;;;;;;;;;5087335;28;19919;-84
2023/12/07 09:46:10;;;;;;;;;;;;;;;;;;5090260;28;19915;-85
2023/12/07 09:48:35;;;;;;;;;;;;;;;;;;5092425;28;20291;-85
2023/12/07 09:51:00;;;;;;;;;;;;;;;;;;5089829;28;19938;-84
2023/12/07 09:53:25;;;;;;;;;;;;;;;;;;5088003;28;19913;-84
2023/12/07 09:55:51;;;;;;;;;;;;;;;;;;5083141;28;19924;-84
2023/12/07 09:58:16;;;;;;;;;;;;;;;;;;5084039;28;20398;-84
2023/12/07 10:00:41;;;;;;;;;;;;;;;;;;5089057;28;19944;-84
2023/12/07 10:03:09;;;;;;;;;;;;;;;;;;5092388;28;19919;-84
2023/12/07 10:05:34;;;;;;;;;;;;;;;;;;5081441;28;19913;-84
2023/12/07 10:07:59;;;;;;;;;;;;;;;;;;5082721;28;19919;-84
2023/12/07 10:10:25;;;;;;;;;;;;;;;;;;5084413;28;20344;-84
2023/12/07 10:12:50;;;;;;;;;;;;;;;;;;5085786;28;19998;-84
2023/12/07 10:15:16;;;;;;;;;;;;;;;;;;5091612;28;19927;-84
2023/12/07 10:17:41;;;;;;;;;;;;;;;;;;5088497;28;20291;-85
2023/12/07 10:20:08;;;;;;;;;;;;;;;;;;5092553;28;19922;-84
2023/12/07 10:22:33;;;;;;;;;;;;;;;;;;5086663;28;20002;-84
2023/12/07 10:24:58;;;;;;;;;;;;;;;;;;5086453;28;19912;-84
2023/12/07 10:27:23;;;;;;;;;;;;;;;;;;5076646;28;20283;-84
2023/12/07 10:29:48;;;;;;;;;;;;;;;;;;5088564;28;19979;-84
2023/12/07 10:32:13;;;;;;;;;;;;;;;;;;5092781;28;20272;-84
2023/12/07 10:34:39;;;;;;;;;;;;;;;;;;5086167;28;19927;-84
2023/12/07 10:37:04;;;;;;;;;;;;;;;;;;5089738;28;19916;-84
2023/12/07 10:39:29;;;;;;;;;;;;;;;;;;5086992;28;19919;-84
2023/12/07 10:41:54;;;;;;;;;;;;;;;;;;5089384;28;19963;-84
2023/12/07 10:44:19;;;;;;;;;;;;;;;;;;5083443;28;20325;-84
2023/12/07 10:46:44;;;;;;;;;;;;;;;;;;5089533;28;19912;-84
2023/12/07 10:49:09;;;;;;;;;;;;;;;;;;5089544;28;19912;-85
2023/12/07 10:51:35;;;;;;;;;;;;;;;;;;5088764;28;19919;-84
2023/12/07 10:54:00;;;;;;;;;;;;;;;;;;5080870;28;19916;-85
2023/12/07 10:56:26;;;;;;;;;;;;;;;;;;5089124;28;20291;-84
2023/12/07 10:58:51;;;;;;;;;;;;;;;;;;5090928;28;19919;-84
2023/12/07 11:01:16;;;;;;;;;;;;;;;;;;5088954;28;19912;-84
2023/12/07 11:03:41;;;;;;;;;;;;;;;;;;5091748;28;20275;-84
2023/12/07 11:06:06;;;;;;;;;;;;;;;;;;5087851;28;19912;-84
2023/12/07 11:08:32;;;;;;;;;;;;;;;;;;5091768;28;19945;-84
2023/12/07 11:10:57;;;;;;;;;;;;;;;;;;5087573;28;20002;-84
2023/12/07 11:13:22;;;;;;;;;;;;;;;;;;5081592;28;19913;-84
2023/12/07 11:15:47;;;;;;;;;;;;;;;;;;5085046;28;19920;-84
2023/12/07 11:18:13;;;;;;;;;;;;;;;;;;5090062;28;20755;-84
2023/12/07 11:20:39;;;;;;;;;;;;;;;;;;5089453;28;19959;-84
2023/12/07 11:23:04;;;;;;;;;;;;;;;;;;5092614;28;19950;-84
2023/12/07 11:25:29;;;;;;;;;;;;;;;;;;5091777;28;19912;-84
2023/12/07 11:27:54;;;;;;;;;;;;;;;;;;5084381;28;19927;-84
2023/12/07 11:30:19;;;;;;;;;;;;;;;;;;5083367;28;19966;-84
2023/12/07 11:32:45;;;;;;;;;;;;;;;;;;5092812;28;19980;-84
2023/12/07 11:35:10;;;;;;;;;;;;;;;;;;5089480;28;20359;-84
2023/12/07 11:37:36;;;;;;;;;;;;;;;;;;5095304;28;19912;-84
2023/12/07 11:40:01;;;;;;;;;;;;;;;;;;5086122;28;20003;-84
2023/12/07 11:42:26;;;;;;;;;;;;;;;;;;5087131;28;19912;-84
2023/12/07 11:44:51;;;;;;;;;;;;;;;;;;5093941;28;19912;-84
2023/12/07 11:47:16;;;;;;;;;;;;;;;;;;5092677;28;19912;-85
2023/12/07 11:49:41;;;;;;;;;;;;;;;;;;5095669;28;19912;-84
2023/12/07 11:52:06;;;;;;;;;;;;;;;;;;5082629;28;19916;-84
2023/12/07 11:54:32;;;;;;;;;;;;;;;;;;5094412;28;19920;-84
2023/12/07 11:56:57;;;;;;;;;;;;;;;;;;5090937;28;19972;-84
2023/12/07 11:59:22;;;;;;;;;;;;;;;;;;5094766;28;20291;-85
2023/12/07 12:01:48;;;;;;;;;;;;;;;;;;5090527;28;19912;-85
2023/12/07 12:04:13;;;;;;;;;;;;;;;;;;5094065;28;19935;-83
2023/12/07 12:06:38;;;;;;;;;;;;;;;;;;5091342;28;20375;-84
2023/12/07 12:09:03;;;;;;;;;;;;;;;;;;5086586;28;20364;-85
2023/12/07 12:11:31;;;;;;;;;;;;;;;;;;5091264;28;20010;-84
2023/12/07 12:13:57;;;;;;;;;;;;;;;;;;5093868;28;19935;-85
2023/12/07 12:16:22;;;;;;;;;;;;;;;;;;5090044;28;20321;-84
2023/12/07 12:18:48;;;;;;;;;;;;;;;;;;5088896;28;19920;-85
2023/12/07 12:21:13;;;;;;;;;;;;;;;;;;5083592;28;19965;-84
2023/12/07 12:23:39;;;;;;;;;;;;;;;;;;5088821;28;19916;-84
2023/12/07 12:26:04;;;;;;;;;;;;;;;;;;5091980;28;19913;-85
2023/12/07 12:28:32;;;;;;;;;;;;;;;;;;5087647;28;20738;-84
2023/12/07 12:30:57;;;;;;;;;;;;;;;;;;5091944;28;20274;-85
2023/12/07 12:33:22;;;;;;;;;;;;;;;;;;5094566;28;19975;-85
2023/12/07 12:35:47;;;;;;;;;;;;;;;;;;5081941;28;19927;-84
2023/12/07 12:38:12;;;;;;;;;;;;;;;;;;5089031;28;19924;-84
2023/12/07 12:40:37;;;;;;;;;;;;;;;;;;5090739;28;20368;-84
2023/12/07 12:43:02;;;;;;;;;;;;;;;;;;5093228;28;19916;-85
2023/12/07 12:45:27;;;;;;;;;;;;;;;;;;5091126;28;19912;-85
2023/12/07 12:47:53;;;;;;;;;;;;;;;;;;5093430;28;19913;-84
2023/12/07 12:50:18;;;;;;;;;;;;;;;;;;5090039;28;19913;-84
2023/12/07 12:52:43;;;;;;;;;;;;;;;;;;5084780;28;19963;-84
2023/12/07 12:55:09;;;;;;;;;;;;;;;;;;5091848;28;19920;-84
2023/12/07 12:57:36;;;;;;;;;;;;;;;;;;5091345;28;19912;-85
2023/12/07 13:00:01;;;;;;;;;;;;;;;;;;5084518;28;19985;-84
2023/12/07 13:02:26;;;;;;;;;;;;;;;;;;5090250;28;20376;-85
2023/12/07 13:04:51;;;;;;;;;;;;;;;;;;5093162;28;19912;-85
2023/12/07 13:07:17;;;;;;;;;;;;;;;;;;5088702;28;19911;-84
2023/12/07 13:09:43;;;;;;;;;;;;;;;;;;5094246;28;19912;-84
2023/12/07 13:12:09;;;;;;;;;;;;;;;;;;5089089;28;19919;-84
2023/12/07 13:14:35;;;;;;;;;;;;;;;;;;5092555;28;20037;-84
2023/12/07 13:17:00;;;;;;;;;;;;;;;;;;5082437;28;20376;-85
2023/12/07 13:19:25;;;;;;;;;;;;;;;;;;5082208;28;20414;-85
2023/12/07 13:21:50;;;;;;;;;;;;;;;;;;5093371;28;20390;-84
2023/12/07 13:24:17;;;;;;;;;;;;;;;;;;5087964;28;20003;-84
2023/12/07 13:26:42;;;;;;;;;;;;;;;;;;5082597;22;20047;-84
2023/12/07 13:29:07;;;;;;;;;;;;;;;;;;5053350;28;19920;-84
2023/12/07 13:31:32;;;;;;;;;;;;;;;;;;5049272;28;19913;-84
2023/12/07 13:33:57;;;;;;;;;;;;;;;;;;5053017;28;19948;-85
2023/12/07 13:36:25;;;;;;;;;;;;;;;;;;5050219;28;20012;-84
2023/12/07 13:38:50;;;;;;;;;;;;;;;;;;5051597;28;19913;-85
2023/12/07 13:41:16;;;;;;;;;;;;;;;;;;5050150;28;19912;-84
2023/12/07 13:43:42;;;;;;;;;;;;;;;;;;5052801;28;19917;-84
2023/12/07 13:46:07;;;;;;;;;;;;;;;;;;5046919;28;19912;-84
2023/12/07 13:48:32;;;;;;;;;;;;;;;;;;5050011;28;19920;-83
2023/12/07 13:50:57;;;;;;;;;;;;;;;;;;5048972;28;20426;-84
2023/12/07 13:53:22;;;;;;;;;;;;;;;;;;5051710;28;19935;-85
2023/12/07 13:55:47;;;;;;;;;;;;;;;;;;5049101;28;19927;-83
2023/12/07 13:58:12;;;;;;;;;;;;;;;;;;5045920;28;19921;-84
2023/12/07 14:00:37;;;;;;;;;;;;;;;;;;5046785;28;19913;-86
2023/12/07 14:03:03;;;;;;;;;;;;;;;;;;5051595;28;20364;-86
2023/12/07 14:05:28;;;;;;;;;;;;;;;;;;5047265;28;19913;-86
2023/12/07 14:07:54;;;;;;;;;;;;;;;;;;5044732;28;19917;-84
2023/12/07 14:10:19;;;;;;;;;;;;;;;;;;5046504;28;20356;-85
2023/12/07 14:12:44;;;;;;;;;;;;;;;;;;5042717;28;19912;-85
2023/12/07 14:15:09;;;;;;;;;;;;;;;;;;5048814;28;20364;-81
2023/12/07 14:17:37;;;;;;;;;;;;;;;;;;5050847;28;19959;-82
2023/12/07 14:20:03;;;;;;;;;;;;;;;;;;5045760;28;19917;-83
2023/12/07 14:22:28;;;;;;;;;;;;;;;;;;5047848;28;20356;-83
2023/12/07 14:24:53;;;;;;;;;;;;;;;;;;5049314;28;19914;-87
2023/12/07 14:27:18;;;;;;;;;;;;;;;;;;5049373;28;19928;-85
2023/12/07 14:29:44;;;;;;;;;;;;;;;;;;5045295;28;19913;-83
2023/12/07 14:32:09;;;;;;;;;;;;;;;;;;5051727;28;19925;-85
2023/12/07 14:34:35;;;;;;;;;;;;;;;;;;5045797;28;20272;-85
2023/12/07 14:37:00;;;;;;;;;;;;;;;;;;5044951;28;20372;-83
2023/12/07 14:39:25;;;;;;;;;;;;;;;;;;5043855;28;20000;-85
2023/12/07 14:41:50;;;;;;;;;;;;;;;;;;5039989;28;20015;-85
2023/12/07 14:44:16;;;;;;;;;;;;;;;;;;5045948;28;19927;-82
2023/12/07 14:46:41;;;;;;;;;;;;;;;;;;5044307;28;19952;-84
2023/12/07 14:49:06;;;;;;;;;;;;;;;;;;5050657;28;19987;-87
2023/12/07 14:51:31;;;;;;;;;;;;;;;;;;5042187;28;19935;-83
2023/12/07 14:53:56;;;;;;;;;;;;;;;;;;5050966;28;19913;-81
2023/12/07 14:56:22;;;;;;;;;;;;;;;;;;5043778;28;20012;-81
2023/12/07 14:58:47;;;;;;;;;;;;;;;;;;5049650;28;19940;-82
2023/12/07 15:01:13;;;;;;;;;;;;;;;;;;5049576;28;20371;-84
2023/12/07 15:03:38;;;;;;;;;;;;;;;;;;5049606;28;19913;-82
2023/12/07 15:06:04;;;;;;;;;;;;;;;;;;5051436;28;20314;-86
2023/12/07 15:08:29;;;;;;;;;;;;;;;;;;5055465;28;19912;-85
2023/12/07 15:10:55;;;;;;;;;;;;;;;;;;5050834;28;20023;-83
2023/12/07 15:13:21;;;;;;;;;;;;;;;;;;5054386;28;19935;-81
2023/12/07 15:15:46;;;;;;;;;;;;;;;;;;5051621;28;19921;-83
2023/12/07 15:18:11;;;;;;;;;;;;;;;;;;5046626;28;20392;-83
2023/12/07 15:20:36;;;;;;;;;;;;;;;;;;5055520;28;19917;-86
2023/12/07 15:23:02;;;;;;;;;;;;;;;;;;5054745;28;19913;-84
2023/12/07 15:25:27;;;;;;;;;;;;;;;;;;5054315;28;19932;-83
2023/12/07 15:27:52;;;;;;;;;;;;;;;;;;5054845;28;20376;-81
2023/12/07 15:30:17;;;;;;;;;;;;;;;;;;5052633;28;19913;-81
2023/12/07 15:32:43;;;;;;;;;;;;;;;;;;5049962;28;19916;-82
2023/12/07 15:35:08;;;;;;;;;;;;;;;;;;5052171;28;20023;-83
2023/12/07 15:37:33;;;;;;;;;;;;;;;;;;5047175;28;19917;-81
2023/12/07 15:39:58;;;;;;;;;;;;;;;;;;5051076;28;20320;-82
2023/12/07 15:42:23;;;;;;;;;;;;;;;;;;5053268;28;19912;-81
2023/12/07 15:44:48;;;;;;;;;;;;;;;;;;5042839;28;19913;-81
2023/12/07 15:47:14;;;;;;;;;;;;;;;;;;5045290;28;19913;-82
2023/12/07 15:49:41;;;;;;;;;;;;;;;;;;5055174;28;19913;-82
2023/12/07 15:52:06;;;;;;;;;;;;;;;;;;5052042;28;20047;-83
2023/12/07 15:54:31;;;;;;;;;;;;;;;;;;5054261;28;20007;-83
2023/12/07 15:56:56;;;;;;;;;;;;;;;;;;5050309;28;19948;-83
2023/12/07 15:59:21;;;;;;;;;;;;;;;;;;5050353;28;20012;-86
2023/12/07 16:01:46;;;;;;;;;;;;;;;;;;5048114;28;19912;-82
2023/12/07 16:04:11;;;;;;;;;;;;;;;;;;5044635;28;19936;-82
2023/12/07 16:06:37;;;;;;;;;;;;;;;;;;5047777;28;19920;-84
2023/12/07 16:09:02;;;;;;;;;;;;;;;;;;5052638;28;20265;-82
2023/12/07 16:11:27;;;;;;;;;;;;;;;;;;5054039;28;19995;-80
2023/12/07 16:13:52;;;;;;;;;;;;;;;;;;5052152;28;19939;-81
2023/12/07 16:16:17;;;;;;;;;;;;;;;;;;5049980;28;20265;-81
2023/12/07 16:18:42;;;;;;;;;;;;;;;;;;5051262;28;20390;-80
2023/12/07 16:21:07;;;;;;;;;;;;;;;;;;5047311;28;19920;-81
2023/12/07 16:23:32;;;;;;;;;;;;;;;;;;5048208;28;19945;-83
2023/12/07 16:25:57;;;;;;;;;;;;;;;;;;5049886;28;20007;-84
2023/12/07 16:28:22;;;;;;;;;;;;;;;;;;5044573;28;19924;-85
2023/12/07 16:30:48;;;;;;;;;;;;;;;;;;5051167;28;19917;-83